KCRS/CRS METAR and TAF weather

Enter ICAO airport designator
Station Type Date Time Source
KCRS METAR 2019/10/18 10:53 UTC NOAA

KCRS 181053Z AUTO 00000KT 8SM CLR 09/08 A2993 RMK AO2 SLP132 T00940083


Station Type Date Time Source
KCRS Decoded METAR 2019/10/18 10:53 UTC NOAA

CORSICANA AIRFIELD, TX, United States (KCRS) 32-01N 96-23W 133M
Oct 18, 2019 - 06:53 AM EDT / 2019.10.18 1053 UTC
Wind: Calm:0
Visibility: 8 mile(s):0
Sky conditions: clear
Temperature: 48.9 F (9.4 C)
Dew Point: 46.9 F (8.3 C)
Relative Humidity: 92%
Pressure (altimeter): 29.93 in. Hg (1013 hPa)
ob: KCRS 181053Z AUTO 00000KT 8SM CLR 09/08 A2993 RMK AO2 SLP132 T00940083
cycle: 11

Station Type Date Time Source
KCRS TAF UTC NOAA

Error!

Example: see airport list